Time;durP1;ratioP1;P1;durP2;ratioP2;P2;SDS_P1;SDS_P2;PMS_P1;PMS_P2;Temp;Humidity;BMP_temperature;BMP_pressure;BME280_temperature;BME280_humidity;BME280_pressure;Samples;Min_cycle;Max_cycle;Signal;HPM_P1;HPM_P2
2023/03/30 00:02:07;;;;;;;27.17;15.90;;;0.80;87.60;;;;;;5055521;28;20060;-78
2023/03/30 00:04:33;;;;;;;29.30;15.27;;;0.80;86.80;;;;;;5055522;28;20063;-77
2023/03/30 00:06:59;;;;;;;31.05;16.02;;;0.90;86.70;;;;;;5055564;28;20021;-78
2023/03/30 00:09:29;;;;;;;39.45;18.67;;;0.90;86.00;;;;;;5056834;28;20402;-78
2023/03/30 00:11:55;;;;;;;37.08;20.15;;;1.00;86.40;;;;;;5055450;28;20017;-77
2023/03/30 00:14:28;;;;;;;41.35;19.33;;;1.00;86.60;;;;;;5056791;28;20390;-77
2023/03/30 00:16:54;;;;;;;43.70;17.98;;;1.00;86.40;;;;;;5055359;28;20043;-79
2023/03/30 00:19:20;;;;;;;37.50;18.73;;;1.00;86.10;;;;;;5055305;28;20112;-77
2023/03/30 00:21:46;;;;;;;33.03;16.25;;;1.10;85.00;;;;;;5055045;28;20024;-74
2023/03/30 00:24:12;;;;;;;34.30;17.60;;;1.10;83.70;;;;;;5055296;28;20398;-75
2023/03/30 00:26:37;;;;;;;32.05;15.88;;;1.20;83.40;;;;;;5056366;28;20036;-77
2023/03/30 00:29:03;;;;;;;39.95;18.08;;;1.20;82.60;;;;;;5055304;28;20047;-76
2023/03/30 00:31:29;;;;;;;39.55;20.70;;;1.30;82.10;;;;;;5055078;28;20017;-77
2023/03/30 00:33:54;;;;;;;27.40;15.65;;;1.30;82.00;;;;;;5055070;28;20028;-75
2023/03/30 00:36:21;;;;;;;33.45;17.65;;;1.40;82.30;;;;;;5056171;28;20140;-79
2023/03/30 00:38:47;;;;;;;30.35;15.93;;;1.40;82.10;;;;;;5054915;28;20070;-79
2023/03/30 00:41:13;;;;;;;28.63;15.77;;;1.40;82.80;;;;;;5055608;28;20087;-77
2023/03/30 00:43:58;;;;;;;28.08;16.52;;;1.40;83.80;;;;;;5056108;28;20426;-79
2023/03/30 00:46:24;;;;;;;33.55;17.98;;;1.40;85.30;;;;;;5054825;28;20029;-77
2023/03/30 00:48:50;;;;;;;30.15;15.18;;;1.40;86.40;;;;;;5056063;28;20028;-77
2023/03/30 00:51:16;;;;;;;29.35;15.13;;;1.40;87.50;;;;;;5056012;28;20419;-78
2023/03/30 00:53:46;;;;;;;31.42;16.75;;;1.40;88.00;;;;;;5053551;28;20116;-79
2023/03/30 00:56:15;;;;;;;25.73;15.23;;;1.40;88.30;;;;;;5056332;28;20021;-79
2023/03/30 00:58:43;;;;;;;26.77;14.32;;;1.40;88.80;;;;;;5054595;28;20028;-79
2023/03/30 01:01:13;;;;;;;29.80;15.65;;;1.40;89.30;;;;;;5054935;28;20020;-77
2023/03/30 01:03:44;;;;;;;30.35;16.70;;;1.50;88.20;;;;;;5054515;28;20032;-77
2023/03/30 01:06:12;;;;;;;33.47;17.63;;;1.50;87.60;;;;;;5055842;28;20032;-79
2023/03/30 01:08:39;;;;;;;29.42;16.33;;;1.50;87.50;;;;;;5054366;28;20592;-76
2023/03/30 01:11:06;;;;;;;30.90;16.92;;;1.50;88.20;;;;;;5054401;28;20021;-75
2023/03/30 01:13:35;;;;;;;25.70;15.98;;;1.50;88.50;;;;;;5055561;28;20029;-77
2023/03/30 01:16:00;;;;;;;26.38;15.57;;;1.50;88.80;;;;;;5054128;28;20356;-79
2023/03/30 01:18:54;;;;;;;27.33;15.18;;;1.50;89.00;;;;;;5054212;28;20115;-80
2023/03/30 01:21:57;;;;;;;27.73;14.90;;;1.50;88.80;;;;;;5054132;28;20045;-80
2023/03/30 01:24:52;;;;;;;27.50;15.77;;;1.50;87.70;;;;;;5054039;28;20048;-79
2023/03/30 01:27:44;;;;;;;31.77;16.65;;;1.50;87.10;;;;;;5055362;28;20130;-77
2023/03/30 01:30:44;;;;;;;30.05;15.80;;;1.50;86.70;;;;;;5054020;28;20025;-77
2023/03/30 01:33:21;;;;;;;28.92;15.50;;;1.50;85.80;;;;;;5053951;28;20029;-80
2023/03/30 01:36:16;;;;;;;26.83;15.75;;;1.50;85.20;;;;;;5053971;28;20493;-77
2023/03/30 01:39:04;;;;;;;34.30;15.40;;;1.50;84.90;;;;;;5055257;28;20027;-77
2023/03/30 01:41:36;;;;;;;33.78;16.42;;;1.50;84.90;;;;;;5053652;28;20025;-77
2023/03/30 01:44:05;;;;;;;27.03;15.20;;;1.50;85.00;;;;;;5053781;28;20044;-77
2023/03/30 01:46:39;;;;;;;29.42;14.65;;;1.50;86.50;;;;;;5054892;28;20082;-79
2023/03/30 01:49:14;;;;;;;26.30;15.60;;;1.50;85.90;;;;;;5053875;28;20181;-79
2023/03/30 01:51:45;;;;;;;31.55;16.40;;;1.50;85.50;;;;;;5053706;28;20457;-77
2023/03/30 01:54:24;;;;;;;35.28;17.27;;;1.50;85.10;;;;;;5053499;28;20048;-79
2023/03/30 01:56:58;;;;;;;29.30;16.20;;;1.50;84.70;;;;;;5054908;28;20035;-77
2023/03/30 01:59:28;;;;;;;30.27;16.80;;;1.50;85.40;;;;;;5054740;28;20079;-78
2023/03/30 02:01:59;;;;;;;27.38;15.27;;;1.50;84.30;;;;;;5053364;28;20017;-78
2023/03/30 02:04:27;;;;;;;27.95;15.75;;;1.50;84.60;;;;;;5053081;28;20083;-78
2023/03/30 02:07:05;;;;;;;26.17;14.52;;;1.50;85.10;;;;;;5053505;28;20028;-74
2023/03/30 02:09:32;;;;;;;31.50;15.27;;;1.50;85.20;;;;;;5054537;28;20025;-74
2023/03/30 02:12:01;;;;;;;25.02;14.02;;;1.50;85.30;;;;;;5054487;28;20021;-76
2023/03/30 02:14:31;;;;;;;32.42;16.77;;;1.50;85.50;;;;;;5054391;28;20032;-76
2023/03/30 02:17:02;;;;;;;29.35;15.43;;;1.50;87.00;;;;;;5053124;28;20033;-76
2023/03/30 02:19:29;;;;;;;29.30;17.13;;;1.50;87.00;;;;;;5053140;28;20017;-78
2023/03/30 02:21:55;;;;;;;26.95;15.13;;;1.50;87.00;;;;;;5054140;28;20510;-78
2023/03/30 02:24:25;;;;;;;32.10;15.40;;;1.50;87.10;;;;;;5052903;28;20040;-78
2023/03/30 02:26:52;;;;;;;23.00;15.32;;;1.50;86.70;;;;;;5054281;28;20021;-76
2023/03/30 02:29:21;;;;;;;28.17;15.65;;;1.50;86.40;;;;;;5054072;28;20025;-76
2023/03/30 02:31:48;;;;;;;23.02;15.18;;;1.50;86.20;;;;;;5054141;28;20035;-77
2023/03/30 02:34:42;;;;;;;23.17;15.90;;;1.60;86.00;;;;;;5052724;28;20112;-75
2023/03/30 02:37:48;;;;;;;28.13;16.00;;;1.50;86.00;;;;;;5052640;28;20033;-77
2023/03/30 02:40:33;;;;;;;29.15;15.02;;;1.50;86.80;;;;;;5015450;28;20112;-75
2023/03/30 02:43:16;;;;;;;24.73;15.07;;;1.40;87.80;;;;;;5052249;28;20033;-76
2023/03/30 02:46:08;;;;;;;27.50;17.42;;;1.40;88.60;;;;;;5052729;28;20037;-76
2023/03/30 02:48:46;;;;;;;31.35;16.90;;;1.30;88.80;;;;;;5053703;28;20021;-75
2023/03/30 02:51:44;;;;;;;33.33;16.50;;;1.40;88.60;;;;;;5053877;28;20100;-75
2023/03/30 02:54:10;;;;;;;31.20;15.80;;;1.30;88.30;;;;;;5052621;28;20031;-76
2023/03/30 02:56:40;;;;;;;30.30;17.60;;;1.30;88.30;;;;;;5053648;28;20028;-77
2023/03/30 02:59:29;;;;;;;35.65;17.98;;;1.30;88.80;;;;;;5052349;28;20075;-77
2023/03/30 03:02:03;;;;;;;27.73;15.27;;;1.30;89.90;;;;;;5053592;28;20021;-76
2023/03/30 03:04:33;;;;;;;26.90;15.10;;;1.30;89.90;;;;;;5052379;28;20080;-78
2023/03/30 03:07:01;;;;;;;22.85;14.93;;;1.20;89.50;;;;;;5052548;28;20478;-78
2023/03/30 03:09:27;;;;;;;28.05;16.25;;;1.20;89.90;;;;;;5052444;28;20048;-76
2023/03/30 03:11:54;;;;;;;28.52;15.68;;;1.30;90.00;;;;;;5052222;28;20052;-78
2023/03/30 03:14:19;;;;;;;25.92;15.50;;;1.30;90.50;;;;;;5052168;28;20032;-76
2023/03/30 03:16:45;;;;;;;23.77;14.88;;;1.30;90.20;;;;;;5053090;28;20032;-77
2023/03/30 03:19:11;;;;;;;28.50;15.00;;;1.30;91.10;;;;;;5052188;28;20463;-75
2023/03/30 03:21:37;;;;;;;30.65;15.07;;;1.30;91.20;;;;;;5053212;28;20021;-77
2023/03/30 03:24:03;;;;;;;26.70;14.93;;;1.30;91.80;;;;;;5053166;28;20394;-78
2023/03/30 03:26:29;;;;;;;25.73;15.90;;;1.30;92.90;;;;;;5052071;28;20021;-78
2023/03/30 03:28:55;;;;;;;28.13;15.45;;;1.30;93.00;;;;;;5052001;28;20021;-77
2023/03/30 03:31:20;;;;;;;30.08;16.88;;;1.30;93.90;;;;;;5051986;28;20021;-77
2023/03/30 03:33:46;;;;;;;28.77;15.80;;;1.30;95.10;;;;;;5051847;28;20029;-77
2023/03/30 03:36:12;;;;;;;27.30;15.90;;;1.30;97.20;;;;;;5053198;28;20025;-78
2023/03/30 03:38:37;;;;;;;36.05;17.08;;;1.30;97.90;;;;;;5051893;28;20029;-76
2023/03/30 03:41:04;;;;;;;26.80;16.70;;;1.30;98.90;;;;;;5051883;28;20032;-76
2023/03/30 03:43:30;;;;;;;25.40;14.48;;;1.40;99.00;;;;;;5051746;28;20456;-77
2023/03/30 03:45:55;;;;;;;31.75;16.08;;;1.40;98.40;;;;;;5051881;28;20029;-77
2023/03/30 03:48:23;;;;;;;33.30;15.07;;;1.40;98.10;;;;;;5053103;28;20031;-77
2023/03/30 03:50:51;;;;;;;22.10;13.48;;;1.40;97.90;;;;;;5053078;28;20029;-75
2023/03/30 03:53:16;;;;;;;25.95;13.82;;;1.30;98.40;;;;;;5053094;28;20411;-75
2023/03/30 03:55:43;;;;;;;29.05;14.75;;;1.30;98.20;;;;;;5053145;28;20025;-75
2023/03/30 03:58:09;;;;;;;27.75;14.43;;;1.40;97.40;;;;;;5052979;28;20028;-77
2023/03/30 04:00:35;;;;;;;23.65;14.18;;;1.40;97.90;;;;;;5051703;28;20021;-78
2023/03/30 04:03:00;;;;;;;24.52;14.32;;;1.40;96.60;;;;;;5051666;28;20052;-75
2023/03/30 04:05:26;;;;;;;29.40;16.95;;;1.40;97.50;;;;;;5052875;28;20033;-75
2023/03/30 04:07:52;;;;;;;30.02;15.35;;;1.40;98.20;;;;;;5052972;28;20088;-75
2023/03/30 04:10:19;;;;;;;23.60;14.63;;;1.50;98.80;;;;;;5051632;28;20017;-75
2023/03/30 04:12:45;;;;;;;24.30;14.65;;;1.50;98.10;;;;;;5051481;28;20013;-76
2023/03/30 04:15:11;;;;;;;28.27;15.93;;;1.50;98.70;;;;;;5052904;28;20021;-76
2023/03/30 04:17:37;;;;;;;28.55;15.95;;;1.50;98.60;;;;;;5052585;28;20100;-76
2023/03/30 04:20:04;;;;;;;27.35;16.73;;;1.50;99.90;;;;;;5052821;28;20112;-78
2023/03/30 04:22:40;;;;;;;31.88;16.83;;;1.50;99.90;;;;;;5051439;28;20094;-78
2023/03/30 04:25:07;;;;;;;32.85;16.13;;;1.40;99.90;;;;;;5051550;28;20033;-75
2023/03/30 04:27:33;;;;;;;28.52;16.27;;;1.40;99.90;;;;;;5055035;28;20025;-77
2023/03/30 04:30:00;;;;;;;31.73;16.13;;;1.30;99.90;;;;;;5055846;28;20028;-79
2023/03/30 04:32:26;;;;;;;29.08;17.83;;;1.30;99.90;;;;;;5056276;28;20052;-76
2023/03/30 04:34:55;;;;;;;32.47;18.13;;;1.30;99.90;;;;;;5056274;28;20560;-75
2023/03/30 04:37:28;;;;;;;35.80;19.42;;;1.40;99.90;;;;;;5055080;28;20498;-77
2023/03/30 04:39:58;;;;;;;43.00;21.33;;;1.40;99.90;;;;;;5055024;28;20017;-77
2023/03/30 04:42:29;;;;;;;43.00;22.63;;;1.40;99.90;;;;;;5055042;28;20115;-77
2023/03/30 04:44:58;;;;;;;48.05;21.15;;;1.40;99.90;;;;;;5055677;28;20029;-77
2023/03/30 04:47:25;;;;;;;40.13;20.60;;;1.40;99.90;;;;;;5055176;28;20028;-78
2023/03/30 04:49:50;;;;;;;42.28;21.60;;;1.50;99.90;;;;;;5064606;28;20028;-79
2023/03/30 04:52:17;;;;;;;40.15;19.90;;;1.50;99.90;;;;;;5069835;28;20029;-78
2023/03/30 04:54:42;;;;;;;47.88;21.27;;;1.50;99.90;;;;;;5073074;28;20045;-77
2023/03/30 04:57:08;;;;;;;35.47;20.15;;;1.60;99.90;;;;;;5070851;28;20067;-78
2023/03/30 04:59:34;;;;;;;37.90;19.88;;;1.60;99.90;;;;;;5069909;28;20029;-79
2023/03/30 05:02:00;;;;;;;32.60;17.25;;;1.60;99.90;;;;;;5055661;28;20100;-78
2023/03/30 05:04:25;;;;;;;29.80;16.77;;;1.70;99.90;;;;;;5056670;28;20135;-77
2023/03/30 05:06:51;;;;;;;25.50;16.30;;;1.70;99.90;;;;;;5055751;28;20039;-81
2023/03/30 05:09:17;;;;;;;26.92;16.70;;;1.80;99.90;;;;;;5055848;28;20029;-81
2023/03/30 05:11:42;;;;;;;31.98;16.65;;;1.80;99.90;;;;;;5054592;28;20021;-76
2023/03/30 05:14:08;;;;;;;31.38;17.73;;;1.90;99.90;;;;;;5064858;28;20032;-78
2023/03/30 05:16:33;;;;;;;28.50;16.35;;;2.00;99.90;;;;;;5074039;28;20047;-78
2023/03/30 05:18:59;;;;;;;31.67;18.52;;;2.00;99.90;;;;;;5074513;28;20020;-78
2023/03/30 05:21:25;;;;;;;28.48;17.85;;;2.10;99.90;;;;;;5073902;28;20527;-75
2023/03/30 05:23:51;;;;;;;40.28;21.77;;;2.10;99.90;;;;;;5075109;28;20101;-79
2023/03/30 05:26:17;;;;;;;38.53;19.77;;;2.10;99.90;;;;;;5075157;28;20111;-79
2023/03/30 05:28:43;;;;;;;49.67;24.48;;;2.20;99.90;;;;;;5069144;28;20483;-78
2023/03/30 05:31:08;;;;;;;74.82;40.25;;;2.20;99.90;;;;;;5053721;28;20025;-77
2023/03/30 05:33:34;;;;;;;131.65;66.53;;;2.20;99.90;;;;;;5055081;28;20032;-77
2023/03/30 05:35:59;;;;;;;87.63;43.95;;;2.30;99.90;;;;;;5055064;28;20095;-75
2023/03/30 05:38:25;;;;;;;63.05;32.45;;;2.30;99.90;;;;;;5054444;28;20017;-78
2023/03/30 05:40:52;;;;;;;60.55;31.55;;;2.40;99.90;;;;;;5052900;28;20021;-78
2023/03/30 05:43:18;;;;;;;51.63;22.67;;;2.40;99.90;;;;;;5052378;28;20497;-78
2023/03/30 05:45:44;;;;;;;42.80;22.25;;;2.50;99.90;;;;;;5051853;28;20017;-75
2023/03/30 05:48:10;;;;;;;41.17;21.52;;;2.60;99.90;;;;;;5050044;28;20060;-75
2023/03/30 05:50:35;;;;;;;48.35;26.75;;;2.70;99.90;;;;;;5050350;28;20079;-78
2023/03/30 05:53:01;;;;;;;72.85;34.65;;;2.70;99.90;;;;;;5049575;28;20032;-78
2023/03/30 05:55:27;;;;;;;61.25;31.02;;;2.80;99.90;;;;;;5049306;28;20021;-76
2023/03/30 05:57:53;;;;;;;77.47;35.95;;;2.90;99.90;;;;;;5047511;28;20029;-76
2023/03/30 06:00:20;;;;;;;74.93;44.13;;;3.00;99.90;;;;;;5048955;28;20100;-78
2023/03/30 06:02:46;;;;;;;46.45;27.92;;;3.10;99.90;;;;;;5049113;28;20740;-78
2023/03/30 06:05:12;;;;;;;34.10;21.58;;;3.10;99.90;;;;;;5047696;28;20033;-76
2023/03/30 06:07:37;;;;;;;40.47;21.50;;;3.20;99.90;;;;;;5050301;28;20032;-76
2023/03/30 06:10:05;;;;;;;38.15;23.73;;;3.30;99.90;;;;;;5050556;28;20229;-78
2023/03/30 06:12:31;;;;;;;30.98;20.95;;;3.40;99.90;;;;;;5050634;28;20021;-76
2023/03/30 06:14:57;;;;;;;30.08;17.02;;;3.50;99.90;;;;;;5051238;28;20064;-78
2023/03/30 06:17:23;;;;;;;21.20;14.35;;;3.60;99.10;;;;;;5051229;28;20049;-76
2023/03/30 06:19:49;;;;;;;25.98;15.20;;;3.70;96.60;;;;;;5064161;28;20021;-76
2023/03/30 06:22:14;;;;;;;25.27;14.88;;;3.80;95.30;;;;;;5072850;28;20040;-77
2023/03/30 06:24:40;;;;;;;21.80;13.25;;;3.90;94.60;;;;;;5055433;28;20075;-77
2023/03/30 06:27:06;;;;;;;21.48;11.52;;;4.00;93.20;;;;;;5051868;28;20025;-76
2023/03/30 06:29:31;;;;;;;18.15;10.77;;;4.10;90.80;;;;;;5052152;28;20028;-76
2023/03/30 06:31:57;;;;;;;22.50;11.82;;;4.20;89.30;;;;;;5050974;28;20111;-76
2023/03/30 06:34:23;;;;;;;23.40;13.32;;;4.30;88.30;;;;;;5050432;28;20017;-77
2023/03/30 06:36:49;;;;;;;22.77;12.15;;;4.40;87.40;;;;;;5050952;28;20671;-76
2023/03/30 06:39:16;;;;;;;22.88;11.93;;;4.50;86.90;;;;;;5051615;28;20096;-77
2023/03/30 06:41:41;;;;;;;30.65;14.32;;;4.60;87.00;;;;;;5051068;28;20025;-77
2023/03/30 06:44:09;;;;;;;26.40;12.98;;;4.70;86.60;;;;;;5053515;28;20505;-77
2023/03/30 06:46:35;;;;;;;24.45;12.63;;;4.80;86.90;;;;;;5052781;28;20470;-77
2023/03/30 06:49:00;;;;;;;33.70;13.10;;;4.90;86.60;;;;;;5052254;28;20055;-76
2023/03/30 06:51:26;;;;;;;27.02;12.95;;;5.00;86.00;;;;;;5053121;28;20021;-77
2023/03/30 06:53:52;;;;;;;26.08;12.40;;;5.10;86.00;;;;;;5053468;28;20043;-77
2023/03/30 06:56:18;;;;;;;28.15;12.90;;;5.20;85.20;;;;;;5053795;28;20025;-77
2023/03/30 06:58:44;;;;;;;21.33;10.90;;;5.30;84.10;;;;;;5053484;28;20021;-78
2023/03/30 07:01:12;;;;;;;21.70;8.98;;;5.40;84.30;;;;;;5053861;28;20423;-77
2023/03/30 07:03:40;;;;;;;20.98;9.52;;;5.60;84.00;;;;;;5051967;28;20108;-77
2023/03/30 07:06:06;;;;;;;21.00;9.63;;;5.70;83.60;;;;;;5053596;28;20056;-77
2023/03/30 07:08:33;;;;;;;16.80;9.30;;;5.80;82.70;;;;;;5052002;28;20014;-76
2023/03/30 07:10:59;;;;;;;21.92;9.43;;;5.80;82.50;;;;;;5053527;28;20078;-77
2023/03/30 07:13:24;;;;;;;15.82;8.57;;;6.00;82.50;;;;;;5051852;28;20483;-77
2023/03/30 07:15:51;;;;;;;13.85;7.63;;;6.00;82.10;;;;;;5053596;28;20027;-76
2023/03/30 07:18:17;;;;;;;15.82;8.23;;;6.10;81.20;;;;;;5053212;28;20125;-77
2023/03/30 07:20:44;;;;;;;17.38;9.00;;;6.20;80.90;;;;;;5052158;28;20045;-77
2023/03/30 07:23:10;;;;;;;23.80;10.23;;;6.30;81.30;;;;;;5051648;28;20502;-78
2023/03/30 07:25:40;;;;;;;21.55;10.43;;;6.30;81.20;;;;;;5052020;28;20037;-77
2023/03/30 07:28:05;;;;;;;17.02;9.10;;;6.40;79.60;;;;;;5051619;28;20024;-76
2023/03/30 07:30:35;;;;;;;16.27;8.80;;;6.50;80.10;;;;;;5052056;28;20027;-76
2023/03/30 07:33:01;;;;;;;16.60;8.38;;;6.60;79.20;;;;;;5051610;28;20032;-76
2023/03/30 07:35:27;;;;;;;15.23;8.18;;;6.70;80.20;;;;;;5053218;28;20024;-77
2023/03/30 07:37:53;;;;;;;16.70;9.43;;;6.70;78.10;;;;;;5051531;28;20025;-76
2023/03/30 07:40:20;;;;;;;13.10;8.23;;;6.80;78.30;;;;;;5051887;28;20028;-76
2023/03/30 07:42:46;;;;;;;17.48;7.95;;;6.90;78.00;;;;;;5052816;28;20039;-78
2023/03/30 07:45:12;;;;;;;17.60;8.75;;;7.00;77.50;;;;;;5052016;28;20094;-77
2023/03/30 07:47:38;;;;;;;18.30;8.55;;;7.00;77.40;;;;;;5052934;28;20441;-77
2023/03/30 07:50:05;;;;;;;12.25;7.43;;;7.10;77.00;;;;;;5053165;28;20139;-77
2023/03/30 07:52:31;;;;;;;12.00;6.93;;;7.30;77.40;;;;;;5051882;28;20036;-77
2023/03/30 07:54:57;;;;;;;13.38;7.07;;;7.40;76.30;;;;;;5052901;28;20033;-77
2023/03/30 07:57:23;;;;;;;11.85;6.35;;;7.40;74.00;;;;;;5051736;28;20040;-77
2023/03/30 07:59:49;;;;;;;10.70;6.28;;;7.50;74.60;;;;;;5052690;28;20100;-78
2023/03/30 08:02:15;;;;;;;13.98;6.07;;;7.60;74.00;;;;;;5053843;28;20099;-78
2023/03/30 08:04:41;;;;;;;11.70;5.72;;;7.70;73.70;;;;;;5055322;28;20036;-78
2023/03/30 08:07:07;;;;;;;10.85;5.85;;;7.80;72.10;;;;;;5055546;28;20025;-77
2023/03/30 08:09:33;;;;;;;8.70;5.38;;;8.00;71.60;;;;;;5056644;28;20071;-77
2023/03/30 08:11:58;;;;;;;10.27;5.38;;;8.20;71.00;;;;;;5055843;28;20028;-77
2023/03/30 08:14:26;;;;;;;6.95;5.18;;;8.50;69.90;;;;;;5056430;28;20112;-77
2023/03/30 08:16:52;;;;;;;8.95;5.35;;;8.80;69.20;;;;;;5056876;28;20028;-77
2023/03/30 08:19:19;;;;;;;6.72;4.38;;;9.00;67.40;;;;;;5056319;28;20107;-77
2023/03/30 08:21:45;;;;;;;7.22;5.07;;;9.10;67.00;;;;;;5055185;28;20021;-78
2023/03/30 08:24:10;;;;;;;6.68;5.05;;;9.40;65.80;;;;;;5054964;28;20127;-77
2023/03/30 08:26:37;;;;;;;5.90;5.00;;;9.60;64.90;;;;;;5056549;28;20502;-77
2023/03/30 08:29:03;;;;;;;5.95;5.03;;;9.80;65.60;;;;;;5056240;28;20048;-78
2023/03/30 08:31:31;;;;;;;9.25;4.88;;;9.90;63.10;;;;;;5056536;28;20057;-77
2023/03/30 08:33:57;;;;;;;10.90;5.03;;;10.00;63.10;;;;;;5056096;28;20029;-78
2023/03/30 08:36:23;;;;;;;8.38;5.50;;;10.00;62.90;;;;;;5055033;28;20094;-77
2023/03/30 08:38:49;;;;;;;9.82;5.40;;;10.00;63.00;;;;;;5056000;28;20021;-77
2023/03/30 08:41:54;;;;;;;6.13;4.38;;;10.00;62.40;;;;;;5056310;28;20555;-77
2023/03/30 08:44:32;;;;;;;10.65;4.68;;;10.00;62.70;;;;;;5055918;28;20060;-78
2023/03/30 08:47:01;;;;;;;8.55;4.88;;;10.00;62.00;;;;;;5054914;28;20021;-78
2023/03/30 08:49:28;;;;;;;8.77;5.38;;;10.00;60.90;;;;;;5054463;28;20032;-78
2023/03/30 08:51:55;;;;;;;10.40;5.10;;;10.10;61.40;;;;;;5054713;28;20021;-77
2023/03/30 08:54:23;;;;;;;9.48;5.30;;;10.10;61.00;;;;;;5054505;28;20036;-77
2023/03/30 08:57:13;;;;;;;8.38;4.35;;;10.10;61.30;;;;;;5054788;28;20027;-78
2023/03/30 08:59:50;;;;;;;8.18;5.40;;;10.20;61.60;;;;;;5054635;28;20029;-78
2023/03/30 09:02:22;;;;;;;8.07;4.57;;;10.20;60.80;;;;;;5054616;28;20029;-77
2023/03/30 09:05:06;;;;;;;10.05;5.53;;;10.20;61.80;;;;;;5059518;28;20036;-77
2023/03/30 09:07:39;;;;;;;9.23;5.15;;;10.30;61.90;;;;;;5076057;28;20028;-78
2023/03/30 09:10:15;;;;;;;8.35;5.50;;;10.30;61.90;;;;;;5063417;28;20020;-77
2023/03/30 09:12:54;;;;;;;9.10;5.53;;;10.30;61.10;;;;;;5074790;28;20099;-78
2023/03/30 09:15:28;;;;;;;7.15;5.60;;;10.40;61.00;;;;;;5053647;28;20579;-77
2023/03/30 09:18:16;;;;;;;8.02;5.00;;;10.60;62.30;;;;;;5055138;28;20549;-77
2023/03/30 09:20:43;;;;;;;9.60;5.28;;;10.90;61.90;;;;;;5054549;28;20021;-78
2023/03/30 09:23:14;;;;;;;9.48;5.10;;;11.10;61.60;;;;;;5053907;28;20044;-77
2023/03/30 09:25:52;;;;;;;10.02;5.22;;;11.20;60.40;;;;;;5055401;28;20029;-78
2023/03/30 09:28:21;;;;;;;9.75;6.20;;;11.30;60.20;;;;;;5053828;28;20128;-77
2023/03/30 09:30:48;;;;;;;10.32;5.80;;;11.60;60.30;;;;;;5055503;28;20043;-78
2023/03/30 09:33:20;;;;;;;7.68;5.38;;;11.80;60.50;;;;;;5053738;28;20482;-78
2023/03/30 09:36:12;;;;;;;10.77;6.70;;;12.10;59.60;;;;;;5054103;28;20021;-78
2023/03/30 09:38:40;;;;;;;10.63;5.90;;;12.30;59.20;;;;;;5050705;28;20105;-78
2023/03/30 09:41:20;;;;;;;10.57;6.50;;;12.20;58.30;;;;;;5054073;28;20480;-77
2023/03/30 09:43:47;;;;;;;9.88;5.68;;;12.40;58.90;;;;;;5053390;28;20513;-77
2023/03/30 09:46:15;;;;;;;8.43;5.35;;;12.30;58.00;;;;;;5053787;28;20025;-77
2023/03/30 09:48:46;;;;;;;10.90;5.70;;;12.20;57.90;;;;;;5054772;28;20025;-77
2023/03/30 09:51:24;;;;;;;6.40;4.22;;;12.10;58.30;;;;;;5054914;28;20049;-77
2023/03/30 09:53:59;;;;;;;8.70;4.82;;;12.00;58.70;;;;;;5054593;28;20025;-78
2023/03/30 09:56:33;;;;;;;6.03;3.63;;;12.00;59.60;;;;;;5054925;28;20016;-78
2023/03/30 09:59:27;;;;;;;5.65;2.75;;;12.10;60.00;;;;;;5053124;28;20025;-77
2023/03/30 10:02:07;;;;;;;7.60;3.30;;;12.30;60.10;;;;;;5054880;28;20057;-79
2023/03/30 10:04:32;;;;;;;8.60;5.03;;;12.50;59.50;;;;;;5053122;28;20426;-77
2023/03/30 10:06:58;;;;;;;7.95;2.83;;;13.00;59.20;;;;;;5054737;28;20070;-78
2023/03/30 10:09:24;;;;;;;7.60;4.45;;;13.10;58.10;;;;;;5053047;28;20112;-77
2023/03/30 10:11:54;;;;;;;6.57;4.78;;;13.40;57.50;;;;;;5054667;28;20021;-78
2023/03/30 10:14:36;;;;;;;6.43;4.43;;;13.60;56.70;;;;;;5052918;28;20017;-78
2023/03/30 10:17:04;;;;;;;5.15;3.28;;;13.70;55.90;;;;;;5053531;28;20025;-77
2023/03/30 10:19:33;;;;;;;5.28;3.10;;;13.70;55.70;;;;;;5054024;28;20017;-79
2023/03/30 10:22:02;;;;;;;3.70;3.13;;;13.70;55.30;;;;;;5054182;28;20045;-77
2023/03/30 10:24:31;;;;;;;7.60;3.15;;;13.80;55.40;;;;;;5052730;28;20037;-77
2023/03/30 10:27:04;;;;;;;3.65;2.70;;;13.90;55.30;;;;;;5052849;28;20094;-77
2023/03/30 10:29:30;;;;;;;6.15;3.40;;;14.20;55.40;;;;;;5052540;28;20017;-78
2023/03/30 10:32:10;;;;;;;3.00;2.50;;;14.30;55.00;;;;;;5054250;28;20025;-78
2023/03/30 10:34:51;;;;;;;4.50;2.47;;;14.40;55.00;;;;;;5052683;28;20028;-77
2023/03/30 10:37:29;;;;;;;7.03;3.58;;;14.50;54.40;;;;;;5054118;28;20025;-78
2023/03/30 10:39:58;;;;;;;3.50;2.30;;;14.50;55.50;;;;;;5053907;28;20136;-78
2023/03/30 10:42:27;;;;;;;5.50;2.65;;;14.50;55.50;;;;;;5053569;28;20021;-78
2023/03/30 10:45:01;;;;;;;4.32;2.88;;;14.60;55.70;;;;;;5052617;28;20115;-78
2023/03/30 10:47:48;;;;;;;3.30;2.00;;;14.40;54.80;;;;;;5052233;28;20038;-78
2023/03/30 10:50:31;;;;;;;4.30;2.78;;;14.30;55.30;;;;;;5052620;28;20478;-78
2023/03/30 10:53:00;;;;;;;6.13;2.88;;;14.10;55.70;;;;;;5052178;28;20448;-78
2023/03/30 10:55:40;;;;;;;4.70;2.92;;;14.00;56.20;;;;;;5054021;28;20017;-77
2023/03/30 10:58:12;;;;;;;6.00;2.30;;;14.00;56.10;;;;;;5052522;28;20029;-78
2023/03/30 11:01:06;;;;;;;8.07;3.17;;;14.10;56.30;;;;;;5053838;28;20136;-78
2023/03/30 11:03:32;;;;;;;3.88;2.90;;;14.30;56.50;;;;;;5028817;28;20082;-78
2023/03/30 11:06:07;;;;;;;12.23;3.22;;;14.20;55.10;;;;;;5052457;28;20021;-78
2023/03/30 11:08:36;;;;;;;4.95;2.40;;;14.20;55.30;;;;;;5052144;28;20017;-78
2023/03/30 11:11:04;;;;;;;6.25;2.75;;;14.10;55.80;;;;;;5052354;28;20067;-78
2023/03/30 11:13:37;;;;;;;3.42;2.50;;;14.00;55.60;;;;;;5053355;28;20032;-77
2023/03/30 11:16:17;;;;;;;3.72;2.80;;;14.10;56.40;;;;;;5052166;28;20458;-79
2023/03/30 11:18:57;;;;;;;10.57;3.45;;;14.20;56.00;;;;;;5053233;28;20078;-78
2023/03/30 11:21:27;;;;;;;5.80;2.92;;;14.20;55.80;;;;;;5052153;28;20024;-79
2023/03/30 11:24:11;;;;;;;6.25;2.60;;;14.20;56.00;;;;;;5051598;28;20148;-77
2023/03/30 11:26:39;;;;;;;3.80;2.28;;;14.20;56.10;;;;;;5052155;28;20092;-78
2023/03/30 11:29:31;;;;;;;4.18;2.38;;;14.30;56.10;;;;;;5052869;28;20080;-78
2023/03/30 11:31:56;;;;;;;5.45;3.00;;;14.30;55.60;;;;;;5053279;28;20025;-77
2023/03/30 11:34:46;;;;;;;3.85;3.30;;;14.40;55.90;;;;;;5052851;28;20120;-78
2023/03/30 11:37:40;;;;;;;4.57;2.70;;;14.60;56.30;;;;;;5053242;28;20524;-77
2023/03/30 11:40:10;;;;;;;5.30;3.60;;;14.70;56.30;;;;;;5052010;28;20056;-78
2023/03/30 11:42:36;;;;;;;3.80;2.97;;;14.80;56.00;;;;;;5051811;28;20028;-78
2023/03/30 11:45:16;;;;;;;4.97;3.00;;;14.70;55.80;;;;;;5051902;28;20040;-77
2023/03/30 11:48:16;;;;;;;8.73;2.92;;;14.40;55.40;;;;;;5051435;28;20017;-78
2023/03/30 11:51:00;;;;;;;4.93;3.03;;;14.30;56.10;;;;;;5051741;28;20049;-78
2023/03/30 11:54:07;;;;;;;5.10;2.78;;;14.30;56.90;;;;;;5052834;28;20463;-78
2023/03/30 11:56:45;;;;;;;4.55;2.85;;;14.20;56.50;;;;;;5051769;28;20075;-77
2023/03/30 11:59:29;;;;;;;4.68;2.50;;;14.10;56.80;;;;;;5052900;28;20021;-77
2023/03/30 12:02:22;;;;;;;16.63;3.80;;;14.10;57.00;;;;;;5053020;28;20368;-77
2023/03/30 12:04:59;;;;;;;9.95;2.85;;;14.10;57.60;;;;;;5051366;28;20033;-79
2023/03/30 12:07:43;;;;;;;8.13;3.28;;;14.00;57.80;;;;;;5052980;28;20382;-77
2023/03/30 12:10:27;;;;;;;8.18;3.30;;;13.90;58.00;;;;;;5053009;28;20032;-77
2023/03/30 12:12:54;;;;;;;3.85;3.45;;;13.90;58.40;;;;;;5053010;28;20504;-78
2023/03/30 12:15:41;;;;;;;11.15;4.53;;;13.80;58.80;;;;;;5072870;28;20095;-78
2023/03/30 12:18:28;;;;;;;8.52;3.30;;;13.60;61.20;;;;;;5072533;28;20116;-78
2023/03/30 12:21:27;;;;;;;5.18;2.80;;;13.50;61.10;;;;;;5071553;28;20501;-78
2023/03/30 12:24:00;;;;;;;5.40;2.83;;;13.30;59.90;;;;;;5072821;28;20076;-77
2023/03/30 12:26:27;;;;;;;;;;;13.30;60.50;;;;;;5073277;28;20013;-79
2023/03/30 12:28:52;;;;;;;5.90;3.55;;;13.30;60.50;;;;;;5071117;28;19970;-78
2023/03/30 12:31:18;;;;;;;4.15;3.22;;;13.40;60.70;;;;;;5071507;28;20060;-77
2023/03/30 12:33:48;;;;;;;4.60;3.50;;;13.40;60.60;;;;;;5072357;28;20052;-77
2023/03/30 12:36:45;;;;;;;8.02;3.47;;;13.40;60.50;;;;;;5072731;28;20385;-77
2023/03/30 12:39:30;;;;;;;7.97;3.53;;;13.50;60.30;;;;;;5071135;28;20025;-78
2023/03/30 12:42:05;;;;;;;9.07;3.38;;;13.70;60.20;;;;;;5072823;28;20028;-77
2023/03/30 12:44:39;;;;;;;7.15;3.20;;;13.80;60.50;;;;;;5072352;28;20090;-78
2023/03/30 12:47:42;;;;;;;6.65;3.20;;;13.90;60.00;;;;;;5072690;28;20059;-78
2023/03/30 12:50:14;;;;;;;6.00;3.40;;;13.80;59.60;;;;;;5074777;28;20051;-78
2023/03/30 12:53:04;;;;;;;8.27;3.33;;;13.80;59.40;;;;;;5074391;28;20029;-79
2023/03/30 12:55:38;;;;;;;5.03;3.22;;;13.70;59.80;;;;;;5074732;28;20024;-78
2023/03/30 12:58:12;;;;;;;6.18;3.15;;;13.70;59.80;;;;;;5074284;28;20012;-78
2023/03/30 13:01:01;;;;;;;5.43;3.17;;;13.70;60.50;;;;;;5075983;28;20047;-78
2023/03/30 13:03:48;;;;;;;6.00;3.22;;;13.80;60.70;;;;;;5075618;28;20077;-78